createdAt,value
2023-06-30T00:00:28.972Z,0.00
2023-06-30T00:01:28.992Z,0.00
2023-06-30T00:02:29.100Z,0.00
2023-06-30T00:03:29.167Z,0.00
2023-06-30T00:04:29.144Z,0.00
2023-06-30T00:05:28.950Z,0.00
2023-06-30T00:06:28.901Z,0.00
2023-06-30T00:07:28.945Z,0.00
2023-06-30T00:08:28.891Z,0.00
2023-06-30T00:09:28.873Z,0.00
2023-06-30T00:10:28.857Z,0.00
2023-06-30T00:11:28.863Z,0.00
2023-06-30T00:12:28.837Z,0.00
2023-06-30T00:13:28.848Z,0.00
2023-06-30T00:14:28.823Z,0.00
2023-06-30T00:15:28.895Z,0.00
2023-06-30T00:16:28.928Z,0.00
2023-06-30T00:17:28.806Z,0.00
2023-06-30T00:18:28.876Z,0.00
2023-06-30T00:19:28.768Z,0.00
2023-06-30T00:20:28.775Z,0.00
2023-06-30T00:21:28.760Z,0.00
2023-06-30T00:22:28.749Z,0.00
2023-06-30T00:23:28.730Z,0.00
2023-06-30T00:24:28.727Z,0.00
2023-06-30T00:25:28.703Z,0.00
2023-06-30T00:26:28.696Z,0.00
2023-06-30T00:27:28.675Z,0.00
2023-06-30T00:28:28.654Z,0.00
2023-06-30T00:29:28.646Z,0.00
2023-06-30T00:30:28.648Z,0.00
2023-06-30T00:31:28.685Z,0.00
2023-06-30T00:32:28.654Z,0.00
2023-06-30T00:33:28.604Z,0.00
2023-06-30T00:34:28.622Z,0.00
2023-06-30T00:35:28.585Z,0.00
2023-06-30T00:36:28.573Z,0.00
2023-06-30T00:37:28.629Z,0.00
2023-06-30T00:38:28.565Z,0.00
2023-06-30T00:39:28.542Z,0.00
2023-06-30T00:40:28.526Z,0.00
2023-06-30T00:41:28.550Z,0.00
2023-06-30T00:42:28.514Z,0.00
2023-06-30T00:43:28.496Z,0.00
2023-06-30T00:44:28.489Z,0.00
2023-06-30T00:45:28.495Z,0.00
2023-06-30T00:46:28.492Z,0.00
2023-06-30T00:47:28.479Z,0.00
2023-06-30T00:48:28.435Z,0.00
2023-06-30T00:49:28.431Z,0.00
2023-06-30T00:50:28.506Z,0.00
2023-06-30T00:51:28.450Z,0.00
2023-06-30T00:52:28.393Z,0.00
2023-06-30T00:53:28.399Z,0.00
2023-06-30T00:54:28.476Z,0.00
2023-06-30T00:55:28.373Z,0.00
2023-06-30T00:56:28.348Z,0.00
2023-06-30T00:57:28.387Z,0.00
2023-06-30T00:58:28.331Z,0.00
2023-06-30T00:59:28.332Z,0.00
2023-06-30T01:00:28.302Z,0.00
2023-06-30T01:01:28.356Z,0.00
2023-06-30T01:02:28.387Z,0.00
2023-06-30T01:03:28.584Z,0.00
2023-06-30T01:04:28.321Z,0.00
2023-06-30T01:05:28.276Z,0.00
2023-06-30T01:06:28.264Z,0.00
2023-06-30T01:07:28.303Z,0.00
2023-06-30T01:08:28.218Z,0.00
2023-06-30T01:09:28.212Z,0.00
2023-06-30T01:10:28.209Z,0.00
2023-06-30T01:11:28.213Z,0.00
2023-06-30T01:12:28.174Z,0.00
2023-06-30T01:13:28.185Z,0.00
2023-06-30T01:14:28.150Z,0.00
2023-06-30T01:15:28.148Z,0.00
2023-06-30T01:16:28.178Z,0.00
2023-06-30T01:17:28.158Z,0.00
2023-06-30T01:18:28.146Z,0.00
2023-06-30T01:19:28.113Z,0.00
2023-06-30T01:20:28.083Z,0.00
2023-06-30T01:21:28.077Z,0.00
2023-06-30T01:22:28.116Z,0.00
2023-06-30T01:23:28.060Z,0.00
2023-06-30T01:24:28.042Z,0.00
2023-06-30T01:25:28.032Z,0.00
2023-06-30T01:26:28.091Z,0.00
2023-06-30T01:27:28.057Z,0.00
2023-06-30T01:28:27.997Z,0.00
2023-06-30T01:29:27.988Z,0.00
2023-06-30T01:30:28.000Z,0.00
2023-06-30T01:31:27.994Z,0.00
2023-06-30T01:32:27.993Z,0.00
2023-06-30T01:33:27.948Z,0.00
2023-06-30T01:34:27.929Z,0.00
2023-06-30T01:35:27.920Z,0.00
2023-06-30T01:36:27.907Z,0.00
2023-06-30T01:37:27.923Z,0.00
2023-06-30T01:38:27.908Z,0.00
2023-06-30T01:39:27.880Z,0.00
2023-06-30T01:40:27.869Z,0.00
2023-06-30T01:41:27.855Z,0.00
2023-06-30T01:42:27.869Z,0.00
2023-06-30T01:43:27.828Z,0.00
2023-06-30T01:44:27.827Z,0.00
2023-06-30T01:45:27.831Z,0.00
2023-06-30T01:46:27.834Z,0.00
2023-06-30T01:47:27.838Z,0.00
2023-06-30T01:48:27.776Z,0.00
2023-06-30T01:49:27.762Z,0.00
2023-06-30T01:50:27.761Z,0.00
2023-06-30T01:51:27.743Z,0.00
2023-06-30T01:52:27.764Z,0.00
2023-06-30T01:53:27.727Z,0.00
2023-06-30T01:54:27.738Z,0.00
2023-06-30T01:55:27.699Z,0.00
2023-06-30T01:56:27.716Z,0.00
2023-06-30T01:57:27.694Z,0.00
2023-06-30T01:58:27.683Z,0.00
2023-06-30T01:59:27.673Z,0.00
2023-06-30T02:00:27.671Z,0.00
2023-06-30T02:01:27.679Z,0.00
2023-06-30T02:02:27.720Z,0.00
2023-06-30T02:03:27.690Z,0.00
2023-06-30T02:04:27.605Z,0.00
2023-06-30T02:05:27.587Z,0.00
2023-06-30T02:06:27.581Z,0.00
2023-06-30T02:07:27.600Z,0.00
2023-06-30T02:08:27.584Z,0.00
2023-06-30T02:09:38.740Z,0.00
2023-06-30T02:10:28.556Z,0.00
2023-06-30T02:11:27.515Z,0.00
2023-06-30T02:12:27.535Z,0.00
2023-06-30T02:13:27.507Z,0.00
2023-06-30T02:14:27.486Z,0.00
2023-06-30T02:15:27.474Z,0.00
2023-06-30T02:16:27.487Z,0.00
2023-06-30T02:17:27.492Z,0.00
2023-06-30T02:18:27.445Z,0.00
2023-06-30T02:19:27.434Z,0.00
2023-06-30T02:20:27.432Z,0.00
2023-06-30T02:21:27.403Z,0.00
2023-06-30T02:22:27.416Z,0.00
2023-06-30T02:23:27.388Z,0.00
2023-06-30T02:24:27.379Z,0.00
2023-06-30T02:25:27.370Z,0.00
2023-06-30T02:26:27.435Z,0.00
2023-06-30T02:27:28.228Z,0.00
2023-06-30T02:28:27.344Z,0.00
2023-06-30T02:29:27.319Z,0.00
2023-06-30T02:30:27.318Z,0.00
2023-06-30T02:31:27.331Z,0.00
2023-06-30T02:32:27.357Z,0.00
2023-06-30T02:33:27.274Z,0.00
2023-06-30T02:34:27.264Z,0.00
2023-06-30T02:35:27.270Z,0.00
2023-06-30T02:36:27.240Z,0.00
2023-06-30T02:37:27.236Z,0.00
2023-06-30T02:38:27.257Z,0.00
2023-06-30T02:39:27.214Z,0.00
2023-06-30T02:40:27.211Z,0.00
2023-06-30T02:41:27.190Z,0.00
2023-06-30T02:42:27.242Z,0.00
2023-06-30T02:43:27.158Z,0.00
2023-06-30T02:44:27.155Z,0.00
2023-06-30T02:45:27.156Z,0.00
2023-06-30T02:46:27.211Z,0.00
2023-06-30T02:47:27.248Z,0.00
2023-06-30T02:48:27.111Z,0.00
2023-06-30T02:49:27.094Z,0.00
2023-06-30T02:50:27.130Z,0.00
2023-06-30T02:51:27.072Z,0.00
2023-06-30T02:52:27.102Z,0.00
2023-06-30T02:53:27.048Z,0.00
2023-06-30T02:54:27.052Z,0.00
2023-06-30T02:55:27.024Z,0.00
2023-06-30T02:56:27.046Z,0.00
2023-06-30T02:57:27.024Z,0.00
2023-06-30T02:58:27.275Z,0.00
2023-06-30T02:59:27.102Z,0.00
2023-06-30T03:00:27.048Z,0.00
2023-06-30T03:01:27.134Z,0.00
2023-06-30T03:02:27.258Z,0.00
2023-06-30T03:03:27.096Z,0.00
2023-06-30T03:04:27.028Z,0.00
2023-06-30T03:05:26.992Z,0.00
2023-06-30T03:06:26.921Z,0.00
2023-06-30T03:07:26.928Z,0.00
2023-06-30T03:08:26.881Z,0.00
2023-06-30T03:09:26.863Z,0.00
2023-06-30T03:10:26.862Z,0.00
2023-06-30T03:11:26.891Z,4.00
2023-06-30T03:12:26.868Z,4.00
2023-06-30T03:13:26.819Z,4.00
2023-06-30T03:14:26.832Z,0.00
2023-06-30T03:15:26.808Z,4.00
2023-06-30T03:16:26.841Z,4.00
2023-06-30T03:17:26.878Z,4.00
2023-06-30T03:18:26.766Z,8.00
2023-06-30T03:19:26.754Z,4.00
2023-06-30T03:20:26.751Z,4.00
2023-06-30T03:21:26.737Z,8.00
2023-06-30T03:22:26.744Z,8.00
2023-06-30T03:23:26.715Z,8.00
2023-06-30T03:24:26.705Z,8.00
2023-06-30T03:25:26.688Z,12.00
2023-06-30T03:26:26.674Z,8.00
2023-06-30T03:27:26.678Z,12.00
2023-06-30T03:28:26.668Z,16.00
2023-06-30T03:29:26.638Z,12.00
2023-06-30T03:30:26.678Z,12.00
2023-06-30T03:31:26.643Z,16.00
2023-06-30T03:32:26.697Z,16.00
2023-06-30T03:33:26.596Z,20.00
2023-06-30T03:34:26.593Z,24.00
2023-06-30T03:35:26.597Z,32.00
2023-06-30T03:36:26.567Z,36.00
2023-06-30T03:37:26.567Z,44.00
2023-06-30T03:38:26.595Z,44.00
2023-06-30T03:39:26.542Z,52.00
2023-06-30T03:40:26.544Z,68.00
2023-06-30T03:41:26.506Z,84.00
2023-06-30T03:42:26.510Z,80.00
2023-06-30T03:43:26.488Z,76.00
2023-06-30T03:44:26.492Z,64.00
2023-06-30T03:45:26.460Z,68.00
2023-06-30T03:46:26.510Z,68.00
2023-06-30T03:47:26.509Z,80.00
2023-06-30T03:48:26.433Z,76.00
2023-06-30T03:49:26.476Z,76.00
2023-06-30T03:50:26.424Z,84.00
2023-06-30T03:51:26.409Z,68.00
2023-06-30T03:52:26.388Z,56.00
2023-06-30T03:53:26.394Z,56.00
2023-06-30T03:54:26.372Z,72.00
2023-06-30T03:55:26.346Z,88.00
2023-06-30T03:56:26.340Z,96.00
2023-06-30T03:57:26.330Z,104.00
2023-06-30T03:58:26.374Z,112.00
2023-06-30T03:59:26.300Z,124.00
2023-06-30T04:00:26.306Z,124.00
2023-06-30T04:01:26.278Z,112.00
2023-06-30T04:02:26.389Z,128.00
2023-06-30T04:03:27.900Z,144.00
2023-06-30T04:04:26.323Z,148.00
2023-06-30T04:05:26.239Z,140.00
2023-06-30T04:06:26.229Z,124.00
2023-06-30T04:07:26.293Z,140.00
2023-06-30T04:08:26.344Z,136.00
2023-06-30T04:09:26.232Z,144.00
2023-06-30T04:10:26.184Z,156.00
2023-06-30T04:11:26.174Z,156.00
2023-06-30T04:12:26.165Z,144.00
2023-06-30T04:13:26.157Z,144.00
2023-06-30T04:14:26.141Z,152.00
2023-06-30T04:15:26.141Z,156.00
2023-06-30T04:16:26.147Z,164.00
2023-06-30T04:17:26.134Z,168.00
2023-06-30T04:18:26.115Z,180.00
2023-06-30T04:19:26.090Z,196.00
2023-06-30T04:20:26.068Z,216.00
2023-06-30T04:21:26.069Z,240.00
2023-06-30T04:22:26.051Z,224.00
2023-06-30T04:23:26.050Z,224.00
2023-06-30T04:24:26.776Z,232.00
2023-06-30T04:25:26.012Z,260.00
2023-06-30T04:26:26.030Z,248.00
2023-06-30T04:27:25.995Z,196.00
2023-06-30T04:28:26.032Z,208.00
2023-06-30T04:29:25.968Z,208.00
2023-06-30T04:30:25.974Z,212.00
2023-06-30T04:31:25.991Z,224.00
2023-06-30T04:32:25.967Z,228.00
2023-06-30T04:33:25.938Z,188.00
2023-06-30T04:34:25.938Z,260.00
2023-06-30T04:35:25.970Z,284.00
2023-06-30T04:36:25.917Z,344.00
2023-06-30T04:37:25.880Z,340.00
2023-06-30T04:38:25.926Z,340.00
2023-06-30T04:39:25.880Z,292.00
2023-06-30T04:40:25.869Z,404.00
2023-06-30T04:41:25.842Z,404.00
2023-06-30T04:42:25.847Z,488.00
2023-06-30T04:43:25.864Z,536.00
2023-06-30T04:44:25.808Z,516.00
2023-06-30T04:45:25.791Z,648.00
2023-06-30T04:46:25.847Z,720.00
2023-06-30T04:47:25.821Z,644.00
2023-06-30T04:48:25.840Z,584.00
2023-06-30T04:49:25.757Z,636.00
2023-06-30T04:50:25.761Z,624.00
2023-06-30T04:51:25.735Z,536.00
2023-06-30T04:52:25.718Z,560.00
2023-06-30T04:53:25.725Z,452.00
2023-06-30T04:54:25.701Z,564.00
2023-06-30T04:55:25.774Z,504.00
2023-06-30T04:56:25.677Z,432.00
2023-06-30T04:57:25.659Z,552.00
2023-06-30T04:58:25.697Z,564.00
2023-06-30T04:59:25.643Z,548.00
2023-06-30T05:00:25.633Z,532.00
2023-06-30T05:01:25.647Z,548.00
2023-06-30T05:02:25.640Z,576.00
2023-06-30T05:03:25.656Z,688.00
2023-06-30T05:04:25.592Z,756.00
2023-06-30T05:05:25.582Z,784.00
2023-06-30T05:06:25.588Z,748.00
2023-06-30T05:07:25.637Z,684.00
2023-06-30T05:08:25.565Z,672.00
2023-06-30T05:09:25.523Z,732.00
2023-06-30T05:10:25.517Z,844.00
2023-06-30T05:11:25.498Z,988.00
2023-06-30T05:12:25.514Z,1132.00
2023-06-30T05:13:25.473Z,1088.00
2023-06-30T05:14:25.494Z,1304.00
2023-06-30T05:15:25.468Z,1372.00
2023-06-30T05:16:25.552Z,1448.00
2023-06-30T05:17:25.573Z,1600.00
2023-06-30T05:18:25.466Z,1632.00
2023-06-30T05:19:25.418Z,1372.00
2023-06-30T05:20:25.418Z,1168.00
2023-06-30T05:21:25.386Z,1224.00
2023-06-30T05:22:25.400Z,1164.00
2023-06-30T05:23:25.382Z,1056.00
2023-06-30T05:24:25.354Z,1088.00
2023-06-30T05:25:25.384Z,1300.00
2023-06-30T05:26:25.335Z,1124.00
2023-06-30T05:27:25.325Z,1072.00
2023-06-30T05:28:25.346Z,652.00
2023-06-30T05:29:26.131Z,688.00
2023-06-30T05:30:25.292Z,1176.00
2023-06-30T05:31:25.294Z,1108.00
2023-06-30T05:32:25.294Z,1200.00
2023-06-30T05:33:25.266Z,1116.00
2023-06-30T05:34:25.251Z,1164.00
2023-06-30T05:35:25.227Z,1060.00
2023-06-30T05:36:25.225Z,1036.00
2023-06-30T05:37:25.216Z,1024.00
2023-06-30T05:38:25.269Z,972.00
2023-06-30T05:39:25.187Z,1148.00
2023-06-30T05:40:25.175Z,1524.00
2023-06-30T05:41:25.165Z,1340.00
2023-06-30T05:42:25.149Z,2024.00
2023-06-30T05:43:25.160Z,1672.00
2023-06-30T05:44:25.172Z,1780.00
2023-06-30T05:45:25.117Z,2088.00
2023-06-30T05:46:25.111Z,1864.00
2023-06-30T05:47:25.122Z,2272.00
2023-06-30T05:48:25.122Z,2432.00
2023-06-30T05:49:25.079Z,2392.00
2023-06-30T05:50:25.058Z,1980.00
2023-06-30T05:51:25.049Z,1984.00
2023-06-30T05:52:25.033Z,3052.00
2023-06-30T05:53:25.041Z,3228.00
2023-06-30T05:54:25.037Z,2968.00
2023-06-30T05:55:25.022Z,1960.00
2023-06-30T05:56:24.993Z,2108.00
2023-06-30T05:57:24.982Z,2320.00
2023-06-30T05:58:25.016Z,2864.00
2023-06-30T05:59:24.964Z,2752.00
2023-06-30T06:00:24.953Z,2464.00
2023-06-30T06:01:24.939Z,2492.00
2023-06-30T06:02:25.192Z,2296.00
2023-06-30T06:03:25.055Z,2528.00
2023-06-30T06:04:25.087Z,2616.00
2023-06-30T06:05:25.134Z,2620.00
2023-06-30T06:06:24.875Z,2440.00
2023-06-30T06:07:24.901Z,2236.00
2023-06-30T06:08:24.857Z,2084.00
2023-06-30T06:09:24.848Z,1764.00
2023-06-30T06:10:24.852Z,1888.00
2023-06-30T06:11:24.840Z,2184.00
2023-06-30T06:12:24.810Z,2200.00
2023-06-30T06:13:24.894Z,1948.00
2023-06-30T06:14:24.787Z,1712.00
2023-06-30T06:15:24.785Z,2148.00
2023-06-30T06:16:24.789Z,2384.00
2023-06-30T06:17:24.824Z,2372.00
2023-06-30T06:18:24.745Z,2540.00
2023-06-30T06:19:24.792Z,2704.00
2023-06-30T06:20:24.733Z,2768.00
2023-06-30T06:21:24.719Z,2660.00
2023-06-30T06:22:24.704Z,2944.00
2023-06-30T06:23:24.736Z,3544.00
2023-06-30T06:24:24.702Z,3700.00
2023-06-30T06:25:24.672Z,2672.00
2023-06-30T06:26:24.682Z,2944.00
2023-06-30T06:27:24.646Z,3328.00
2023-06-30T06:28:24.636Z,3252.00
2023-06-30T06:29:24.638Z,3268.00
2023-06-30T06:30:24.650Z,3360.00
2023-06-30T06:31:24.669Z,3620.00
2023-06-30T06:32:24.616Z,3828.00
2023-06-30T06:33:24.593Z,3816.00
2023-06-30T06:34:24.588Z,3724.00
2023-06-30T06:35:24.562Z,3708.00
2023-06-30T06:36:24.559Z,3856.00
2023-06-30T06:37:24.543Z,4388.00
2023-06-30T06:38:24.529Z,4408.00
2023-06-30T06:39:24.514Z,4360.00
2023-06-30T06:40:24.501Z,4576.00
2023-06-30T06:41:24.488Z,4864.00
2023-06-30T06:42:24.540Z,5740.00
2023-06-30T06:43:24.475Z,6280.00
2023-06-30T06:44:24.495Z,7092.00
2023-06-30T06:45:24.451Z,7392.00
2023-06-30T06:46:24.471Z,6668.00
2023-06-30T06:47:24.474Z,7940.00
2023-06-30T06:48:24.476Z,8552.00
2023-06-30T06:49:24.417Z,8240.00
2023-06-30T06:50:24.411Z,8556.00
2023-06-30T06:51:24.384Z,9204.00
2023-06-30T06:52:24.369Z,9428.00
2023-06-30T06:53:24.356Z,9336.00
2023-06-30T06:54:24.369Z,9764.00
2023-06-30T06:55:24.332Z,8724.00
2023-06-30T06:56:24.326Z,9800.00
2023-06-30T06:57:24.325Z,9588.00
2023-06-30T06:58:24.322Z,9732.00
2023-06-30T06:59:24.328Z,9736.00
2023-06-30T07:00:24.277Z,11692.00
2023-06-30T07:01:24.326Z,9392.00
2023-06-30T07:02:24.302Z,7096.00
2023-06-30T07:03:24.325Z,7888.00
2023-06-30T07:04:24.247Z,8352.00
2023-06-30T07:05:24.232Z,10640.00
2023-06-30T07:06:24.208Z,10448.00
2023-06-30T07:07:24.252Z,5848.00
2023-06-30T07:08:24.191Z,6052.00
2023-06-30T07:09:24.204Z,9076.00
2023-06-30T07:10:24.171Z,10992.00
2023-06-30T07:11:24.158Z,12320.00
2023-06-30T07:12:24.142Z,28416.00
2023-06-30T07:13:24.152Z,26944.00
2023-06-30T07:14:24.162Z,43776.00
2023-06-30T07:15:24.140Z,45088.00
2023-06-30T07:16:24.136Z,44128.00
2023-06-30T07:17:24.132Z,47616.00
2023-06-30T07:18:24.180Z,47136.00
2023-06-30T07:19:24.077Z,45728.00
2023-06-30T07:20:24.054Z,45248.00
2023-06-30T07:21:24.071Z,46656.00
2023-06-30T07:22:24.042Z,47456.00
2023-06-30T07:23:26.613Z,43328.00
2023-06-30T07:24:24.841Z,34048.00
2023-06-30T07:25:24.007Z,34592.00
2023-06-30T07:26:24.009Z,27296.00
2023-06-30T07:27:23.986Z,32896.00
2023-06-30T07:28:23.985Z,38752.00
2023-06-30T07:29:23.990Z,25376.00
2023-06-30T07:30:24.060Z,27648.00
2023-06-30T07:31:24.030Z,36288.00
2023-06-30T07:32:23.970Z,23808.00
2023-06-30T07:33:23.913Z,17408.00
2023-06-30T07:34:23.901Z,10104.00
2023-06-30T07:35:24.032Z,18144.00
2023-06-30T07:36:23.879Z,8324.00
2023-06-30T07:37:23.879Z,23680.00
2023-06-30T07:38:23.866Z,17248.00
2023-06-30T07:39:23.856Z,14976.00
2023-06-30T07:40:24.579Z,20704.00
2023-06-30T07:41:23.862Z,19584.00
2023-06-30T07:42:23.812Z,16704.00
2023-06-30T07:43:23.805Z,24416.00
2023-06-30T07:44:23.810Z,18016.00
2023-06-30T07:45:23.795Z,18688.00
2023-06-30T07:46:23.823Z,20960.00
2023-06-30T07:47:23.855Z,16832.00
2023-06-30T07:48:23.966Z,17568.00
2023-06-30T07:49:23.738Z,16704.00
2023-06-30T07:50:23.769Z,20576.00
2023-06-30T07:51:23.720Z,17312.00
2023-06-30T07:52:23.702Z,15776.00
2023-06-30T07:53:23.710Z,14680.00
2023-06-30T07:54:23.695Z,25376.00
2023-06-30T07:55:23.676Z,31232.00
2023-06-30T07:56:23.657Z,14964.00
2023-06-30T07:57:23.648Z,13112.00
2023-06-30T07:58:23.641Z,30784.00
2023-06-30T07:59:23.684Z,13744.00
2023-06-30T08:00:23.640Z,17344.00
2023-06-30T08:01:23.637Z,13412.00
2023-06-30T08:02:23.770Z,12816.00
2023-06-30T08:03:23.818Z,22880.00
2023-06-30T08:04:23.856Z,8192.00
2023-06-30T08:05:23.657Z,6836.00
2023-06-30T08:06:23.548Z,11132.00
2023-06-30T08:07:47.996Z,14936.00
2023-06-30T08:08:24.529Z,18848.00
2023-06-30T08:09:23.520Z,19040.00
2023-06-30T08:10:23.583Z,18816.00
2023-06-30T08:11:23.525Z,14516.00
2023-06-30T08:12:23.484Z,9564.00
2023-06-30T08:13:23.472Z,23456.00
2023-06-30T08:14:23.478Z,43968.00
2023-06-30T08:15:23.482Z,29728.00
2023-06-30T08:16:23.468Z,21920.00
2023-06-30T08:17:31.557Z,64800.00
2023-06-30T08:18:27.951Z,11984.00
2023-06-30T08:19:48.460Z,13068.00
2023-06-30T08:20:24.803Z,48832.00
2023-06-30T08:21:23.511Z,25696.00
2023-06-30T08:22:23.380Z,18784.00
2023-06-30T08:23:23.371Z,40928.00
2023-06-30T08:24:23.359Z,31232.00
2023-06-30T08:25:23.385Z,70848.00
2023-06-30T08:26:23.342Z,37312.00
2023-06-30T08:27:23.332Z,63104.00
2023-06-30T08:28:23.323Z,61984.00
2023-06-30T08:29:23.304Z,59136.00
2023-06-30T08:30:25.314Z,57920.00
2023-06-30T08:31:23.318Z,55264.00
2023-06-30T08:32:23.309Z,14212.00
2023-06-30T08:33:39.123Z,37920.00
2023-06-30T08:34:24.266Z,47936.00
2023-06-30T08:35:23.248Z,8868.00
2023-06-30T08:36:23.234Z,46400.00
2023-06-30T08:37:23.270Z,15192.00
2023-06-30T08:38:23.206Z,24192.00
2023-06-30T08:39:23.193Z,6760.00
2023-06-30T08:40:23.184Z,8800.00
2023-06-30T08:41:23.194Z,58080.00
2023-06-30T08:42:23.183Z,56384.00
2023-06-30T08:43:23.174Z,11620.00
2023-06-30T08:44:23.156Z,9544.00
2023-06-30T08:45:23.167Z,58976.00
2023-06-30T08:46:23.215Z,61344.00
2023-06-30T08:47:23.184Z,66048.00
2023-06-30T08:48:23.099Z,69248.00
2023-06-30T08:49:23.125Z,73984.00
2023-06-30T08:50:23.131Z,76416.00
2023-06-30T08:51:23.076Z,78112.00
2023-06-30T08:52:23.088Z,78144.00
2023-06-30T08:53:23.061Z,80448.00
2023-06-30T08:54:23.047Z,80096.00
2023-06-30T08:55:23.049Z,79936.00
2023-06-30T08:56:23.031Z,76224.00
2023-06-30T08:57:23.019Z,77824.00
2023-06-30T08:58:26.527Z,79072.00
2023-06-30T08:59:22.993Z,82464.00
2023-06-30T09:00:23.012Z,85280.00
2023-06-30T09:01:23.133Z,82592.00
2023-06-30T09:02:23.118Z,78112.00
2023-06-30T09:03:23.091Z,73344.00
2023-06-30T09:04:22.937Z,64608.00
2023-06-30T09:05:23.026Z,61984.00
2023-06-30T09:06:22.956Z,64416.00
2023-06-30T09:07:23.048Z,69664.00
2023-06-30T09:08:22.897Z,76544.00
2023-06-30T09:09:22.889Z,81312.00
2023-06-30T09:10:22.874Z,83840.00
2023-06-30T09:11:22.881Z,86528.00
2023-06-30T09:12:22.872Z,86912.00
2023-06-30T09:13:22.854Z,85536.00
2023-06-30T09:14:22.841Z,83776.00
2023-06-30T09:15:22.858Z,82880.00
2023-06-30T09:16:22.886Z,82336.00
2023-06-30T09:17:22.885Z,82400.00
2023-06-30T09:18:22.812Z,85984.00
2023-06-30T09:19:22.794Z,63168.00
2023-06-30T09:20:22.830Z,83872.00
2023-06-30T09:21:24.420Z,81184.00
2023-06-30T09:22:53.032Z,83296.00
2023-06-30T09:23:23.787Z,77568.00
2023-06-30T09:24:22.757Z,77568.00
2023-06-30T09:25:22.771Z,76768.00
2023-06-30T09:26:22.728Z,76160.00
2023-06-30T09:27:22.714Z,69664.00
2023-06-30T09:28:22.707Z,79136.00
2023-06-30T09:29:22.771Z,78400.00
2023-06-30T09:30:22.682Z,78368.00
2023-06-30T09:31:22.790Z,80384.00
2023-06-30T09:32:22.744Z,80320.00
2023-06-30T09:33:22.654Z,83872.00
2023-06-30T09:34:22.653Z,84672.00
2023-06-30T09:35:22.656Z,81664.00
2023-06-30T09:36:22.631Z,78112.00
2023-06-30T09:37:22.610Z,77184.00
2023-06-30T09:38:22.657Z,73920.00
2023-06-30T09:39:22.630Z,75072.00
2023-06-30T09:40:22.594Z,75872.00
2023-06-30T09:41:22.605Z,79232.00
2023-06-30T09:42:22.564Z,71488.00
2023-06-30T09:43:22.600Z,64256.00
2023-06-30T09:44:22.564Z,66176.00
2023-06-30T09:45:22.551Z,78208.00
2023-06-30T09:46:22.589Z,71136.00
2023-06-30T09:47:22.552Z,73152.00
2023-06-30T09:48:22.504Z,74048.00
2023-06-30T09:49:22.497Z,74112.00
2023-06-30T09:50:22.511Z,73920.00
2023-06-30T09:51:22.498Z,73440.00
2023-06-30T09:52:22.472Z,74272.00
2023-06-30T09:53:22.456Z,77632.00
2023-06-30T09:54:39.310Z,72768.00
2023-06-30T09:55:23.438Z,77664.00
2023-06-30T09:56:22.424Z,80160.00
2023-06-30T09:57:22.417Z,84544.00
2023-06-30T09:58:22.422Z,90144.00
2023-06-30T09:59:22.416Z,93312.00
2023-06-30T10:00:35.694Z,90720.00
2023-06-30T10:01:23.448Z,90336.00
2023-06-30T10:02:22.385Z,92288.00
2023-06-30T10:03:22.509Z,92000.00
2023-06-30T10:04:22.365Z,88576.00
2023-06-30T10:05:22.349Z,87680.00
2023-06-30T10:06:22.349Z,88224.00
2023-06-30T10:07:22.342Z,86272.00
2023-06-30T10:08:22.305Z,84800.00
2023-06-30T10:09:22.307Z,84192.00
2023-06-30T10:10:22.307Z,83232.00
2023-06-30T10:11:22.280Z,86240.00
2023-06-30T10:12:22.269Z,81376.00
2023-06-30T10:13:22.291Z,81984.00
2023-06-30T10:14:22.279Z,83680.00
2023-06-30T10:15:22.234Z,77536.00
2023-06-30T10:16:22.241Z,69312.00
2023-06-30T10:17:22.259Z,66912.00
2023-06-30T10:18:22.229Z,53248.00
2023-06-30T10:19:22.224Z,61760.00
2023-06-30T10:20:30.594Z,61440.00
2023-06-30T10:21:23.178Z,41536.00
2023-06-30T10:22:22.202Z,54304.00
2023-06-30T10:23:22.269Z,66272.00
2023-06-30T10:24:22.181Z,60576.00
2023-06-30T10:25:22.177Z,41440.00
2023-06-30T10:26:22.257Z,57824.00
2023-06-30T10:27:22.117Z,66400.00
2023-06-30T10:28:22.133Z,69728.00
2023-06-30T10:29:22.111Z,76736.00
2023-06-30T10:30:22.112Z,80704.00
2023-06-30T10:31:22.081Z,79008.00
2023-06-30T10:32:22.192Z,69952.00
2023-06-30T10:33:22.104Z,69632.00
2023-06-30T10:34:22.085Z,62944.00
2023-06-30T10:35:22.044Z,65248.00
2023-06-30T10:36:22.078Z,66368.00
2023-06-30T10:37:22.025Z,59776.00
2023-06-30T10:38:22.015Z,70208.00
2023-06-30T10:39:22.007Z,47360.00
2023-06-30T10:40:22.020Z,26976.00
2023-06-30T10:41:21.983Z,21472.00
2023-06-30T10:42:22.048Z,19168.00
2023-06-30T10:43:21.962Z,17728.00
2023-06-30T10:44:21.991Z,16704.00
2023-06-30T10:45:21.946Z,15744.00
2023-06-30T10:46:21.995Z,14976.00
2023-06-30T10:47:21.931Z,14272.00
2023-06-30T10:48:21.949Z,12036.00
2023-06-30T10:49:21.923Z,13560.00
2023-06-30T10:50:21.912Z,13276.00
2023-06-30T10:51:22.002Z,13284.00
2023-06-30T10:52:21.882Z,12760.00
2023-06-30T10:53:21.879Z,12236.00
2023-06-30T10:54:21.911Z,10672.00
2023-06-30T10:55:21.849Z,10000.00
2023-06-30T10:56:21.870Z,10600.00
2023-06-30T10:57:21.821Z,10880.00
2023-06-30T10:58:21.850Z,10868.00
2023-06-30T10:59:21.825Z,10704.00
2023-06-30T11:00:21.803Z,10264.00
2023-06-30T11:01:21.805Z,11004.00
2023-06-30T11:02:21.795Z,11020.00
2023-06-30T11:03:21.838Z,8812.00
2023-06-30T11:04:21.964Z,10632.00
2023-06-30T11:05:21.803Z,10292.00
2023-06-30T11:06:21.765Z,10164.00
2023-06-30T11:07:21.761Z,10788.00
2023-06-30T11:08:21.732Z,9400.00
2023-06-30T11:09:21.746Z,10096.00
2023-06-30T11:10:21.710Z,9716.00
2023-06-30T11:11:21.697Z,10156.00
2023-06-30T11:12:21.678Z,9460.00
2023-06-30T11:13:21.666Z,9712.00
2023-06-30T11:14:21.674Z,8300.00
2023-06-30T11:15:21.672Z,10000.00
2023-06-30T11:16:21.661Z,10992.00
2023-06-30T11:17:21.721Z,11680.00
2023-06-30T11:18:21.679Z,12140.00
2023-06-30T11:19:21.629Z,12888.00
2023-06-30T11:20:21.617Z,12764.00
2023-06-30T11:21:21.580Z,10668.00
2023-06-30T11:22:21.577Z,8396.00
2023-06-30T11:23:21.574Z,7868.00
2023-06-30T11:24:21.586Z,7352.00
2023-06-30T11:25:21.560Z,7000.00
2023-06-30T11:26:21.537Z,6624.00
2023-06-30T11:27:21.533Z,6308.00
2023-06-30T11:28:21.515Z,5948.00
2023-06-30T11:29:21.542Z,5844.00
2023-06-30T11:30:21.518Z,5960.00
2023-06-30T11:31:21.732Z,6132.00
2023-06-30T11:32:21.491Z,6120.00
2023-06-30T11:33:21.480Z,6084.00
2023-06-30T11:34:21.467Z,6276.00
2023-06-30T11:35:21.444Z,6504.00
2023-06-30T11:36:21.425Z,6748.00
2023-06-30T11:37:21.411Z,6904.00
2023-06-30T11:38:21.433Z,6928.00
2023-06-30T11:39:21.413Z,6760.00
2023-06-30T11:40:21.399Z,6436.00
2023-06-30T11:41:21.386Z,6520.00
2023-06-30T11:42:21.381Z,5128.00
2023-06-30T11:43:21.355Z,5744.00
2023-06-30T11:44:21.384Z,5568.00
2023-06-30T11:45:21.339Z,5416.00
2023-06-30T11:46:21.430Z,5432.00
2023-06-30T11:47:21.380Z,5452.00
2023-06-30T11:48:21.313Z,5444.00
2023-06-30T11:49:21.285Z,5540.00
2023-06-30T11:50:21.641Z,5612.00
2023-06-30T11:51:21.280Z,9516.00
2023-06-30T11:52:21.336Z,18272.00
2023-06-30T11:53:21.250Z,7760.00
2023-06-30T11:54:21.245Z,6296.00
2023-06-30T11:55:21.273Z,5440.00
2023-06-30T11:56:21.219Z,5156.00
2023-06-30T11:57:21.198Z,4776.00
2023-06-30T11:58:21.204Z,3632.00
2023-06-30T11:59:21.186Z,3856.00
2023-06-30T12:00:21.236Z,4160.00
2023-06-30T12:01:21.544Z,4096.00
2023-06-30T12:02:21.225Z,4864.00
2023-06-30T12:03:21.177Z,6200.00
2023-06-30T12:04:21.216Z,5660.00
2023-06-30T12:05:21.181Z,5492.00
2023-06-30T12:06:21.145Z,6188.00
2023-06-30T12:07:21.154Z,6112.00
2023-06-30T12:08:21.091Z,4900.00
2023-06-30T12:09:21.076Z,5660.00
2023-06-30T12:10:21.120Z,5872.00
2023-06-30T12:11:21.072Z,5716.00
2023-06-30T12:12:21.056Z,5740.00
2023-06-30T12:13:21.034Z,5424.00
2023-06-30T12:14:21.035Z,5060.00
2023-06-30T12:15:21.032Z,4840.00
2023-06-30T12:16:21.057Z,4836.00
2023-06-30T12:17:21.044Z,5520.00
2023-06-30T12:18:21.006Z,6044.00
2023-06-30T12:19:20.966Z,6528.00
2023-06-30T12:20:20.995Z,7048.00
2023-06-30T12:21:20.948Z,7028.00